Time;durP1;ratioP1;P1;durP2;ratioP2;P2;SDS_P1;SDS_P2;PMS_P1;PMS_P2;Temp;Humidity;BMP_temperature;BMP_pressure;BME280_temperature;BME280_humidity;BME280_pressure;Samples;Min_cycle;Max_cycle;Signal;HPM_P1;HPM_P2
2022/03/27 00:06:14;;;;;;;6.57;2.03;;;;;;;;;;20970931;28;20274;-65
2022/03/27 00:16:16;;;;;;;3.97;2.10;;;;;;;;;;20976227;22;20237;-65
2022/03/27 00:26:18;;;;;;;3.67;2.13;;;;;;;;;;20883908;28;20214;-64
2022/03/27 00:36:21;;;;;;;3.73;1.90;;;;;;;;;;20870883;28;20221;-64
2022/03/27 00:46:22;;;;;;;3.67;1.90;;;13.00;99.90;;;;;;20846748;28;20279;-64
2022/03/27 00:56:24;;;;;;;5.73;2.50;;;;;;;;;;20853494;28;20214;-65
2022/03/27 01:06:41;;;;;;;4.23;2.20;;;12.90;99.90;;;;;;20869639;28;20677;-65
2022/03/27 01:16:47;;;;;;;4.70;2.10;;;;;;;;;;20861299;28;20298;-64
2022/03/27 01:26:49;;;;;;;2.87;1.70;;;;;;;;;;20884028;28;20210;-64
2022/03/27 01:36:51;;;;;;;3.10;2.00;;;;;;;;;;20866287;28;20770;-64
2022/03/27 01:46:55;;;;;;;3.70;2.20;;;;;;;;;;20922021;28;20687;-64
2022/03/27 01:56:57;;;;;;;3.73;2.33;;;;;;;;;;20947580;28;20221;-65
2022/03/27 02:06:59;;;;;;;4.83;2.30;;;;;;;;;;20963013;28;20217;-64
2022/03/27 02:17:01;;;;;;;3.20;2.10;;;;;;;;;;20945970;28;20592;-65
2022/03/27 02:27:04;;;;;;;3.97;2.53;;;12.40;99.90;;;;;;20945257;28;20270;-65
2022/03/27 02:37:06;;;;;;;6.83;2.90;;;;;;;;;;20929128;28;20221;-64
2022/03/27 02:47:08;;;;;;;4.33;2.40;;;;;;;;;;20960604;28;20217;-65
2022/03/27 02:57:10;;;;;;;4.40;2.70;;;11.50;99.90;;;;;;20838373;28;20694;-64
2022/03/27 03:07:14;;;;;;;5.00;2.00;;;12.20;99.90;;;;;;20809719;28;20275;-64
2022/03/27 03:17:16;;;;;;;3.47;2.10;;;;;;;;;;20812861;28;20281;-64
2022/03/27 03:27:18;;;;;;;3.70;2.03;;;;;;;;;;20776877;28;20260;-65
2022/03/27 03:37:20;;;;;;;4.03;2.37;;;;;;;;;;20775327;28;20658;-64
2022/03/27 03:47:22;;;;;;;4.30;2.43;;;;;;;;;;20766317;28;20266;-65
2022/03/27 03:57:23;;;;;;;4.93;2.33;;;;;;;;;;20932459;28;20250;-65
2022/03/27 04:07:25;;;;;;;4.63;2.20;;;;;;;;;;20921563;28;20213;-64
2022/03/27 04:17:29;;;;;;;3.03;2.03;;;;;;;;;;20911275;28;20292;-64
2022/03/27 04:27:31;;;;;;;3.53;2.27;;;;;;;;;;20786856;28;20243;-64
2022/03/27 04:37:37;;;;;;;2.43;1.67;;;11.20;99.90;;;;;;20789151;28;20709;-64
2022/03/27 04:47:39;;;;;;;7.40;2.03;;;11.50;99.90;;;;;;20774861;28;20248;-64
2022/03/27 04:57:41;;;;;;;3.80;2.13;;;11.80;99.90;;;;;;20787962;28;20215;-64
2022/03/27 05:07:44;;;;;;;3.33;1.97;;;;;;;;;;20821442;28;20261;-64
2022/03/27 05:17:51;;;;;;;2.70;1.70;;;;;;;;;;20874889;28;20217;-64
2022/03/27 05:27:55;;;;;;;5.07;2.30;;;11.00;99.90;;;;;;20949812;28;20205;-64
2022/03/27 05:37:58;;;;;;;3.87;2.33;;;10.70;99.90;;;;;;20917576;28;20213;-64
2022/03/27 05:48:00;;;;;;;3.93;2.20;;;;;;;;;;20911284;28;20210;-64
2022/03/27 05:58:02;;;;;;;4.30;2.20;;;;;;;;;;20899611;28;20229;-63
2022/03/27 06:08:04;;;;;;;3.73;2.27;;;11.00;99.90;;;;;;20946732;28;20213;-64
2022/03/27 06:18:09;;;;;;;4.87;3.37;;;;;;;;;;20963050;28;20649;-64
2022/03/27 06:28:11;;;;;;;3.53;2.00;;;;;;;;;;20913626;28;20284;-64
2022/03/27 06:38:13;;;;;;;4.87;2.57;;;;;;;;;;20930921;28;20278;-64
2022/03/27 06:48:15;;;;;;;4.47;2.70;;;;;;;;;;20944021;28;20193;-64
2022/03/27 06:58:17;;;;;;;5.33;2.83;;;;;;;;;;20988234;22;20583;-82
2022/03/27 07:20:03;;;;;;;4.87;2.90;;;;;;;;;;20866099;22;20591;-65
2022/03/27 07:30:06;;;;;;;4.63;2.87;;;;;;;;;;20993107;28;20777;-65
2022/03/27 07:40:09;;;;;;;4.00;2.23;;;13.50;99.90;;;;;;20978048;28;20212;-65
2022/03/27 07:50:11;;;;;;;5.33;2.60;;;13.80;99.90;;;;;;20974612;28;20212;-65
2022/03/27 08:00:14;;;;;;;4.67;2.50;;;;;;;;;;20983083;28;20247;-65
2022/03/27 08:10:16;;;;;;;4.60;2.53;;;;;;;;;;20972392;28;20791;-65
2022/03/27 08:20:18;;;;;;;5.57;2.97;;;;;;;;;;21011453;28;20265;-65
2022/03/27 08:30:20;;;;;;;7.30;3.10;;;;;;;;;;21021205;28;20261;-65
2022/03/27 08:40:22;;;;;;;4.03;2.70;;;;;;;;;;21037873;28;20224;-65
2022/03/27 08:50:31;;;;;;;4.73;2.70;;;15.30;99.90;;;;;;21038554;28;20671;-65
2022/03/27 09:00:35;;;;;;;4.97;3.40;;;16.00;99.90;;;;;;21021298;28;20261;-65
2022/03/27 09:10:38;;;;;;;5.00;2.77;;;;;;;;;;21020783;28;20242;-65
2022/03/27 09:20:42;;;;;;;3.80;2.80;;;;;;;;;;21020114;28;20387;-65
2022/03/27 09:30:44;;;;;;;5.13;2.90;;;;;;;;;;21036157;28;20258;-66
2022/03/27 09:40:46;;;;;;;5.07;3.00;;;;;;;;;;21046707;28;20220;-65
2022/03/27 09:50:48;;;;;;;4.53;3.23;;;;;;;;;;21050153;28;20301;-65
2022/03/27 10:01:07;;;;;;;4.77;2.87;;;17.60;99.90;;;;;;21032864;28;20209;-65
2022/03/27 10:11:13;;;;;;;5.40;3.40;;;;;;;;;;21031642;28;20626;-65
2022/03/27 10:21:15;;;;;;;6.37;3.10;;;;;;;;;;21031055;28;20257;-66
2022/03/27 10:31:18;;;;;;;5.27;3.10;;;;;;;;;;21064034;28;20683;-65
2022/03/27 10:41:38;;;;;;;4.33;2.93;;;19.00;99.90;;;;;;21029752;28;20205;-65
2022/03/27 10:51:45;;;;;;;6.97;3.23;;;19.10;99.90;;;;;;21028008;28;20216;-65
2022/03/27 11:01:51;;;;;;;4.07;2.40;;;;;;;;;;21027160;28;20209;-65
2022/03/27 11:11:54;;;;;;;4.23;2.90;;;19.70;99.90;;;;;;21043599;28;20228;-65
2022/03/27 11:21:56;;;;;;;3.33;2.00;;;;;;;;;;20960393;28;20221;-65
2022/03/27 11:32:07;;;;;;;3.57;2.47;;;19.30;96.10;;;;;;20935698;28;20254;-65
2022/03/27 11:42:28;;;;;;;4.90;2.57;;;20.00;87.80;;;;;;20999368;28;20549;-65
2022/03/27 11:52:30;;;;;;;4.87;2.53;;;;;;;;;;20947752;28;20273;-65
2022/03/27 12:02:45;;;;;;;4.63;2.43;;;20.10;93.20;;;;;;20941324;28;20209;-65
2022/03/27 12:12:56;;;;;;;3.93;2.20;;;;;;;;;;20949503;28;20281;-65
2022/03/27 12:22:58;;;;;;;5.13;2.47;;;;;;;;;;20936931;28;20646;-66
2022/03/27 12:33:01;;;;;;;3.67;1.87;;;;;;;;;;20938252;28;20221;-66
2022/03/27 12:43:12;;;;;;;3.30;2.17;;;21.10;96.20;;;;;;20954919;28;20220;-66
2022/03/27 12:53:25;;;;;;;4.50;2.03;;;20.90;93.60;;;;;;20951807;28;20267;-66
2022/03/27 13:03:27;;;;;;;3.60;1.90;;;;;;;;;;20950727;22;20228;-73
2022/03/27 13:13:41;;;;;;;2.57;1.70;;;21.10;95.20;;;;;;20953762;28;20225;-73
2022/03/27 13:23:42;;;;;;;2.60;1.90;;;;;;;;;;20965274;28;20606;-74
2022/03/27 13:33:44;;;;;;;3.73;2.10;;;;;;;;;;20962532;28;20229;-73
2022/03/27 13:43:46;;;;;;;2.90;1.83;;;;;;;;;;20981375;28;20261;-72
2022/03/27 13:53:48;;;;;;;3.10;1.77;;;;;;;;;;20950236;28;20230;-73
2022/03/27 14:03:51;;;;;;;2.73;1.70;;;;;;;;;;20930911;28;20289;-74
2022/03/27 14:13:53;;;;;;;2.33;1.30;;;;;;;;;;20898927;28;20213;-72
2022/03/27 14:23:56;;;;;;;2.57;1.33;;;;;;;;;;20905508;28;20266;-74
2022/03/27 14:33:58;;;;;;;2.27;1.40;;;;;;;;;;20977616;28;20224;-73
2022/03/27 14:44:00;;;;;;;2.53;1.33;;;;;;;;;;20978284;28;20272;-74
2022/03/27 15:04:23;;;;;;;2.30;1.30;;;;;;;;;;20976630;28;20681;-74
2022/03/27 15:14:25;;;;;;;3.60;2.00;;;;;;;;;;20965133;28;20224;-72
2022/03/27 15:24:26;;;;;;;2.40;1.30;;;;;;;;;;20980417;28;20203;-72
2022/03/27 15:34:29;;;;;;;3.57;1.23;;;21.30;93.00;;;;;;20968649;28;20265;-74
2022/03/27 15:44:30;;;;;;;2.73;1.50;;;;;;;;;;20964042;28;20220;-74
2022/03/27 15:54:32;;;;;;;4.07;1.90;;;;;;;;;;20977204;28;20261;-74
2022/03/27 16:04:34;;;;;;;3.17;1.40;;;;;;;;;;20966882;28;20295;-74
2022/03/27 16:14:37;;;;;;;3.00;1.53;;;;;;;;;;20979121;28;20243;-74
2022/03/27 16:24:38;;;;;;;2.07;1.23;;;;;;;;;;20964042;28;20215;-75
2022/03/27 16:34:40;;;;;;;1.87;1.27;;;;;;;;;;20957529;28;20219;-75
2022/03/27 16:44:43;;;;;;;9.53;1.50;;;;;;;;;;20967217;28;20230;-74
2022/03/27 16:54:45;;;;;;;7.17;3.43;;;;;;;;;;20997541;28;20627;-74
2022/03/27 17:04:46;;;;;;;3.40;1.80;;;;;;;;;;21001331;28;20214;-74
2022/03/27 17:14:55;;;;;;;2.27;1.33;;;;;;;;;;21000662;28;20212;-74
2022/03/27 17:24:57;;;;;;;2.13;1.33;;;;;;;;;;20998738;28;20207;-74
2022/03/27 17:34:59;;;;;;;3.77;1.23;;;;;;;;;;20999605;28;20607;-74
2022/03/27 17:45:01;;;;;;;3.07;1.40;;;;;;;;;;20988094;28;20221;-75
2022/03/27 17:55:03;;;;;;;3.13;1.20;;;19.10;99.90;;;;;;20933417;28;20215;-75
2022/03/27 18:05:05;;;;;;;2.00;1.37;;;;;;;;;;20934704;28;20217;-75
2022/03/27 18:15:07;;;;;;;2.97;1.43;;;18.30;99.90;;;;;;20989384;28;20302;-75
2022/03/27 18:25:09;;;;;;;3.57;1.40;;;;;;;;;;20960062;28;20225;-75
2022/03/27 18:35:11;;;;;;;3.50;1.90;;;;;;;;;;20984028;28;20295;-75
2022/03/27 18:45:15;;;;;;;3.30;2.20;;;18.50;99.90;;;;;;20986208;28;20205;-75
2022/03/27 18:55:19;;;;;;;2.30;1.43;;;;;;;;;;20982938;28;20266;-75
2022/03/27 19:05:20;;;;;;;2.47;1.20;;;;;;;;;;21005172;22;20263;-67
2022/03/27 19:15:23;;;;;;;2.77;1.53;;;;;;;;;;20958619;28;20233;-67
2022/03/27 19:25:26;;;;;;;3.00;1.67;;;;;;;;;;20930770;28;20214;-67
2022/03/27 19:35:28;;;;;;;2.43;1.70;;;;;;;;;;20923310;28;20278;-66
2022/03/27 19:45:30;;;;;;;2.87;1.60;;;;;;;;;;20942788;28;20556;-66
2022/03/27 19:55:32;;;;;;;2.90;1.70;;;;;;;;;;20916130;28;20225;-68
2022/03/27 20:05:34;;;;;;;3.80;2.07;;;;;;;;;;20905567;28;20220;-67
2022/03/27 20:15:36;;;;;;;3.00;1.87;;;;;;;;;;20916410;28;20727;-66
2022/03/27 20:25:38;;;;;;;3.57;2.30;;;;;;;;;;20915937;28;20209;-67
2022/03/27 20:35:40;;;;;;;6.40;2.53;;;;;;;;;;20893810;28;20220;-67
2022/03/27 20:45:42;;;;;;;2.80;2.00;;;;;;;;;;20846417;28;20221;-66
2022/03/27 20:55:44;;;;;;;3.77;2.30;;;17.80;99.90;;;;;;20867125;28;20721;-67
2022/03/27 21:05:46;;;;;;;4.77;2.50;;;;;;;;;;20834813;28;20307;-66
2022/03/27 21:15:48;;;;;;;3.20;2.30;;;;;;;;;;20858994;28;20226;-66
2022/03/27 21:25:50;;;;;;;3.87;2.00;;;;;;;;;;20846668;28;20210;-66
2022/03/27 21:35:52;;;;;;;4.03;2.50;;;;;;;;;;20861028;28;20637;-67
2022/03/27 21:45:54;;;;;;;2.83;2.10;;;;;;;;;;20864161;28;20231;-66
2022/03/27 21:55:56;;;;;;;2.83;1.83;;;;;;;;;;20879438;28;20276;-66
2022/03/27 22:06:04;;;;;;;3.67;2.33;;;;;;;;;;20862337;28;20271;-66
2022/03/27 22:16:49;;;;;;;3.30;2.00;;;;;;;;;;20893872;28;20217;-66
2022/03/27 22:27:09;;;;;;;1.77;1.20;;;16.20;99.90;;;;;;20866402;28;20225;-66
2022/03/27 22:37:22;;;;;;;3.87;2.13;;;16.00;99.90;;;;;;20863948;28;20283;-66
2022/03/27 22:47:31;;;;;;;3.03;2.13;;;;;;;;;;20879334;28;20283;-66
2022/03/27 22:57:37;;;;;;;2.30;1.67;;;15.90;99.90;;;;;;20879249;28;20217;-66
2022/03/27 23:07:42;;;;;;;2.73;1.80;;;;;;;;;;20902832;28;20239;-66
2022/03/27 23:17:48;;;;;;;3.10;1.80;;;15.40;99.90;;;;;;20885974;28;20758;-66
2022/03/27 23:27:52;;;;;;;3.23;1.60;;;15.50;99.90;;;;;;20875706;28;20217;-66
2022/03/27 23:37:57;;;;;;;3.00;1.80;;;15.30;99.90;;;;;;20858398;28;20728;-66
2022/03/27 23:48:04;;;;;;;2.47;1.53;;;;;;;;;;20874351;28;20206;-65
2022/03/27 23:58:08;;;;;;;1.90;1.23;;;15.00;99.90;;;;;;20856225;28;20214;-66
